createdAt,value
2023-03-20T00:02:25.698Z,13.78
2023-03-20T00:04:53.797Z,13.89
2023-03-20T00:07:21.551Z,13.98
2023-03-20T00:12:25.687Z,13.97
2023-03-20T00:14:53.552Z,13.99
2023-03-20T00:17:21.655Z,14.02
2023-03-20T00:19:49.654Z,14.03
2023-03-20T00:22:17.894Z,13.84
2023-03-20T00:24:45.424Z,13.92
2023-03-20T00:27:32.801Z,13.75
2023-03-20T00:30:00.548Z,13.90
2023-03-20T00:32:30.009Z,13.80
2023-03-20T00:34:58.734Z,13.87
2023-03-20T00:37:28.133Z,13.49
2023-03-20T00:39:58.286Z,13.17
2023-03-20T00:42:30.626Z,13.00
2023-03-20T00:46:12.317Z,13.04
2023-03-20T00:48:49.090Z,13.10
2023-03-20T00:51:49.876Z,13.04
2023-03-20T00:54:41.948Z,12.88
2023-03-20T00:57:42.636Z,12.63
2023-03-20T01:01:00.996Z,12.69
2023-03-20T01:04:03.666Z,12.62
2023-03-20T01:06:50.963Z,12.42
2023-03-20T01:09:36.060Z,12.45
2023-03-20T01:12:15.030Z,12.35
2023-03-20T01:14:54.454Z,12.49
2023-03-20T01:17:30.006Z,12.31
2023-03-20T01:20:01.664Z,12.26
2023-03-20T01:22:30.008Z,12.26
2023-03-20T01:24:58.390Z,12.14
2023-03-20T01:27:26.260Z,12.03
2023-03-20T01:29:53.970Z,11.99
2023-03-20T01:32:22.128Z,11.81
2023-03-20T01:34:50.245Z,11.88
2023-03-20T01:37:23.452Z,11.73
2023-03-20T01:39:51.843Z,11.64
2023-03-20T01:42:21.112Z,11.83
2023-03-20T01:44:50.121Z,11.82
2023-03-20T01:47:22.106Z,11.73
2023-03-20T01:50:26.865Z,11.83
2023-03-20T01:53:13.670Z,11.93
2023-03-20T01:55:43.855Z,11.79
2023-03-20T01:58:17.782Z,11.84
2023-03-20T02:00:49.067Z,11.78
2023-03-20T02:03:23.634Z,11.88
2023-03-20T02:05:56.689Z,11.81
2023-03-20T02:08:30.049Z,11.65
2023-03-20T02:11:01.133Z,11.66
2023-03-20T02:13:31.622Z,11.80
2023-03-20T02:16:04.572Z,11.69
2023-03-20T02:18:36.267Z,11.78
2023-03-20T02:21:09.929Z,11.74
2023-03-20T02:23:48.083Z,11.86
2023-03-20T02:26:24.502Z,11.69
2023-03-20T02:29:14.480Z,11.76
2023-03-20T02:31:46.191Z,11.44
2023-03-20T02:35:01.448Z,11.54
2023-03-20T02:37:53.269Z,11.58
2023-03-20T02:40:27.571Z,11.32
2023-03-20T02:42:59.663Z,11.34
2023-03-20T02:45:38.810Z,11.54
2023-03-20T02:48:19.774Z,11.60
2023-03-20T02:50:59.590Z,11.42
2023-03-20T02:53:42.176Z,11.32
2023-03-20T02:56:34.254Z,11.34
2023-03-20T02:59:29.805Z,11.39
2023-03-20T03:02:19.147Z,11.33
2023-03-20T03:04:57.356Z,11.33
2023-03-20T03:07:29.063Z,11.17
2023-03-20T03:10:00.725Z,11.20
2023-03-20T03:12:41.312Z,11.29
2023-03-20T03:15:27.222Z,11.15
2023-03-20T03:17:58.225Z,11.03
2023-03-20T03:20:39.746Z,11.00
2023-03-20T03:23:19.703Z,10.98
2023-03-20T03:25:48.880Z,10.79
2023-03-20T03:28:19.835Z,10.78
2023-03-20T03:30:53.969Z,10.71
2023-03-20T03:33:26.071Z,10.62
2023-03-20T03:36:03.846Z,10.67
2023-03-20T03:38:59.442Z,10.58
2023-03-20T03:41:45.485Z,10.62
2023-03-20T03:44:20.447Z,10.38
2023-03-20T03:46:57.401Z,10.44
2023-03-20T03:49:29.657Z,10.17
2023-03-20T03:52:05.403Z,9.94
2023-03-20T03:54:42.604Z,9.79
2023-03-20T03:57:19.115Z,9.91
2023-03-20T03:59:50.610Z,10.08
2023-03-20T04:02:22.383Z,10.04
2023-03-20T04:04:52.913Z,10.28
2023-03-20T04:09:57.131Z,10.23
2023-03-20T04:12:35.438Z,10.08
2023-03-20T04:15:04.471Z,9.85
2023-03-20T04:17:44.523Z,9.83
2023-03-20T04:20:14.734Z,9.96
2023-03-20T04:22:42.556Z,10.01
2023-03-20T04:25:18.828Z,9.56
2023-03-20T04:27:47.485Z,9.38
2023-03-20T04:30:17.906Z,9.60
2023-03-20T04:32:50.318Z,9.52
2023-03-20T04:35:21.604Z,9.72
2023-03-20T04:37:49.815Z,9.79
2023-03-20T04:40:19.405Z,9.45
2023-03-20T04:42:47.270Z,9.41
2023-03-20T04:45:15.988Z,9.59
2023-03-20T04:47:44.488Z,9.74
2023-03-20T04:50:14.071Z,9.52
2023-03-20T04:52:45.690Z,9.38
2023-03-20T04:55:16.624Z,9.41
2023-03-20T04:57:46.255Z,9.39
2023-03-20T05:00:18.663Z,9.38
2023-03-20T05:02:47.933Z,9.33
2023-03-20T05:05:16.762Z,9.32
2023-03-20T05:07:48.042Z,9.38
2023-03-20T05:10:17.311Z,9.19
2023-03-20T05:12:47.677Z,9.26
2023-03-20T05:15:20.970Z,9.20
2023-03-20T05:17:52.023Z,9.23
2023-03-20T05:20:33.559Z,9.08
2023-03-20T05:25:43.630Z,9.06
2023-03-20T05:28:15.475Z,9.29
2023-03-20T05:30:49.093Z,9.08
2023-03-20T05:33:20.917Z,9.20
2023-03-20T05:35:51.459Z,9.21
2023-03-20T05:38:22.887Z,9.40
2023-03-20T05:41:00.642Z,9.32
2023-03-20T05:43:38.211Z,9.33
2023-03-20T05:46:06.917Z,9.34
2023-03-20T05:48:37.080Z,9.26
2023-03-20T05:51:06.778Z,9.77
2023-03-20T05:53:36.954Z,9.53
2023-03-20T05:56:13.071Z,9.59
2023-03-20T05:58:45.544Z,9.66
2023-03-20T06:01:21.700Z,9.87
2023-03-20T06:03:58.787Z,10.07
2023-03-20T06:06:28.840Z,10.14
2023-03-20T06:08:58.368Z,9.99
2023-03-20T06:11:29.601Z,10.13
2023-03-20T06:13:59.799Z,10.15
2023-03-20T06:16:31.917Z,10.23
2023-03-20T06:19:03.590Z,10.29
2023-03-20T06:21:40.683Z,10.39
2023-03-20T06:24:11.341Z,10.47
2023-03-20T06:26:39.835Z,10.63
2023-03-20T06:29:12.631Z,10.79
2023-03-20T06:31:46.651Z,10.84
2023-03-20T06:34:21.057Z,11.16
2023-03-20T06:36:49.921Z,11.14
2023-03-20T06:39:18.632Z,11.35
2023-03-20T06:41:47.832Z,11.75
2023-03-20T06:44:17.077Z,11.96
2023-03-20T06:46:56.356Z,11.77
2023-03-20T06:49:28.296Z,12.20
2023-03-20T06:51:59.979Z,12.25
2023-03-20T06:54:28.095Z,12.39
2023-03-20T06:56:55.973Z,12.76
2023-03-20T06:59:32.667Z,12.70
2023-03-20T07:02:11.800Z,12.76
2023-03-20T07:04:41.223Z,12.99
2023-03-20T07:07:11.626Z,13.23
2023-03-20T07:09:39.714Z,13.49
2023-03-20T07:12:14.514Z,13.47
2023-03-20T07:14:44.730Z,13.24
2023-03-20T07:17:14.913Z,13.37
2023-03-20T07:19:51.679Z,13.56
2023-03-20T07:22:29.623Z,14.19
2023-03-20T07:27:46.610Z,14.25
2023-03-20T07:30:16.698Z,14.27
2023-03-20T07:32:46.207Z,14.56
2023-03-20T07:35:14.780Z,14.59
2023-03-20T07:40:18.169Z,14.70
2023-03-20T07:42:48.561Z,14.90
2023-03-20T07:45:30.648Z,15.21
2023-03-20T07:48:06.959Z,15.71
2023-03-20T07:50:41.597Z,15.41
2023-03-20T07:53:16.930Z,15.62
2023-03-20T07:55:49.572Z,15.69
2023-03-20T07:58:17.827Z,15.70
2023-03-20T08:00:50.573Z,15.69
2023-03-20T08:03:25.419Z,16.13
2023-03-20T08:05:55.591Z,16.28
2023-03-20T08:08:24.535Z,16.19
2023-03-20T08:10:54.129Z,16.11
2023-03-20T08:13:22.338Z,16.10
2023-03-20T08:16:06.286Z,16.24
2023-03-20T08:18:35.798Z,16.60
2023-03-20T08:21:11.202Z,17.09
2023-03-20T08:23:42.962Z,16.91
2023-03-20T08:26:10.660Z,17.43
2023-03-20T08:28:47.550Z,16.82
2023-03-20T08:31:20.692Z,16.56
2023-03-20T08:33:51.158Z,16.68
2023-03-20T08:38:56.221Z,16.84
2023-03-20T08:41:24.802Z,17.58
2023-03-20T08:43:53.099Z,17.65
2023-03-20T08:46:21.634Z,17.82
2023-03-20T08:48:53.716Z,18.27
2023-03-20T08:51:23.872Z,18.22
2023-03-20T08:53:52.835Z,18.51
2023-03-20T08:56:20.808Z,18.06
2023-03-20T08:58:56.279Z,18.35
2023-03-20T09:01:32.595Z,18.53
2023-03-20T09:06:47.869Z,17.87
2023-03-20T09:09:15.979Z,18.32
2023-03-20T09:11:44.042Z,18.21
2023-03-20T09:14:19.334Z,18.61
2023-03-20T09:16:48.871Z,18.42
2023-03-20T09:19:18.841Z,18.68
2023-03-20T09:21:49.964Z,18.85
2023-03-20T09:24:19.817Z,18.63
2023-03-20T09:26:48.035Z,18.52
2023-03-20T09:29:15.851Z,18.88
2023-03-20T09:31:46.051Z,18.35
2023-03-20T09:34:14.402Z,18.57
2023-03-20T09:36:45.910Z,18.46
2023-03-20T09:39:20.650Z,18.32
2023-03-20T09:41:57.037Z,18.95
2023-03-20T09:44:36.862Z,19.01
2023-03-20T09:47:35.771Z,18.90
2023-03-20T09:50:23.848Z,19.34
2023-03-20T09:52:56.695Z,19.14
2023-03-20T09:55:32.834Z,19.45
2023-03-20T09:58:05.225Z,19.54
2023-03-20T10:00:35.821Z,19.69
2023-03-20T10:03:32.907Z,19.83
2023-03-20T10:06:09.862Z,19.47
2023-03-20T10:08:39.867Z,19.62
2023-03-20T10:11:14.694Z,20.07
2023-03-20T10:13:55.836Z,20.14
2023-03-20T10:16:41.865Z,19.92
2023-03-20T10:19:21.472Z,19.77
2023-03-20T10:22:04.081Z,19.45
2023-03-20T10:24:37.508Z,19.56
2023-03-20T10:27:34.599Z,19.73
2023-03-20T10:30:39.805Z,20.18
2023-03-20T10:33:26.565Z,20.31
2023-03-20T10:36:26.149Z,20.63
2023-03-20T10:39:16.289Z,19.88
2023-03-20T10:42:04.637Z,20.29
2023-03-20T10:44:40.717Z,19.72
2023-03-20T10:47:13.819Z,19.74
2023-03-20T10:49:53.963Z,20.18
2023-03-20T10:55:19.183Z,19.67
2023-03-20T10:57:54.838Z,19.91
2023-03-20T11:00:26.000Z,19.99
2023-03-20T11:02:56.707Z,20.15
2023-03-20T11:05:32.882Z,20.07
2023-03-20T11:08:14.836Z,20.40
2023-03-20T11:10:45.082Z,20.36
2023-03-20T11:13:28.610Z,20.25
2023-03-20T11:15:57.694Z,20.45
2023-03-20T11:18:28.063Z,20.52
2023-03-20T11:21:09.218Z,19.99
2023-03-20T11:23:42.063Z,20.16
2023-03-20T11:26:28.653Z,20.23
2023-03-20T11:28:59.845Z,20.51
2023-03-20T11:31:39.578Z,19.91
2023-03-20T11:34:14.253Z,20.23
2023-03-20T11:37:13.012Z,20.45
2023-03-20T11:39:59.724Z,19.79
2023-03-20T11:42:31.124Z,19.63
2023-03-20T11:45:02.146Z,19.77
2023-03-20T11:47:36.698Z,19.94
2023-03-20T11:50:26.943Z,20.38
2023-03-20T11:52:57.772Z,19.87
2023-03-20T11:55:36.710Z,20.04
2023-03-20T11:58:06.196Z,20.32
2023-03-20T12:00:40.204Z,20.26
2023-03-20T12:03:36.703Z,20.28
2023-03-20T12:06:19.579Z,20.54
2023-03-20T12:08:56.722Z,20.15
2023-03-20T12:11:41.674Z,20.08
2023-03-20T12:14:29.796Z,20.13
2023-03-20T12:17:11.221Z,20.44
2023-03-20T12:19:44.634Z,20.49
2023-03-20T12:22:52.670Z,20.57
2023-03-20T12:26:00.754Z,20.61
2023-03-20T12:28:39.067Z,20.51
2023-03-20T12:31:31.813Z,20.56
2023-03-20T12:34:05.959Z,20.47
2023-03-20T12:36:46.310Z,20.36
2023-03-20T12:39:24.635Z,20.26
2023-03-20T12:42:24.426Z,20.40
2023-03-20T12:45:06.015Z,20.40
2023-03-20T12:48:08.620Z,20.20
2023-03-20T12:50:43.762Z,20.28
2023-03-20T12:53:38.803Z,20.42
2023-03-20T12:56:46.802Z,20.37
2023-03-20T12:59:58.593Z,20.41
2023-03-20T13:02:29.787Z,21.02
2023-03-20T13:05:10.605Z,20.82
2023-03-20T13:07:50.001Z,20.29
2023-03-20T13:10:43.210Z,20.21
2023-03-20T13:13:56.657Z,20.59
2023-03-20T13:16:48.209Z,20.55
2023-03-20T13:19:43.403Z,20.54
2023-03-20T13:22:21.593Z,20.20
2023-03-20T13:25:32.810Z,20.77
2023-03-20T13:28:03.384Z,20.43
2023-03-20T13:30:35.984Z,20.57
2023-03-20T13:33:42.396Z,20.35
2023-03-20T13:36:33.608Z,20.62
2023-03-20T13:39:30.629Z,20.65
2023-03-20T13:42:09.625Z,20.27
2023-03-20T13:44:44.903Z,20.57
2023-03-20T13:47:24.257Z,20.95
2023-03-20T13:50:17.854Z,20.62
2023-03-20T13:53:02.915Z,20.28
2023-03-20T13:55:43.733Z,20.20
2023-03-20T13:58:37.944Z,19.81
2023-03-20T14:01:20.660Z,19.97
2023-03-20T14:03:50.094Z,20.21
2023-03-20T14:06:50.700Z,20.56
2023-03-20T14:09:33.766Z,20.36
2023-03-20T14:12:11.088Z,20.15
2023-03-20T14:14:41.795Z,20.40
2023-03-20T14:17:33.833Z,20.21
2023-03-20T14:20:25.709Z,20.20
2023-03-20T14:22:58.652Z,20.06
2023-03-20T14:25:32.996Z,20.25
2023-03-20T14:28:11.057Z,20.42
2023-03-20T14:30:49.652Z,20.37
2023-03-20T14:33:30.775Z,20.89
2023-03-20T14:36:24.100Z,20.59
2023-03-20T14:39:07.117Z,20.50
2023-03-20T14:42:03.617Z,20.57
2023-03-20T14:44:50.712Z,20.34
2023-03-20T14:47:43.414Z,20.14
2023-03-20T14:50:35.046Z,19.94
2023-03-20T14:53:22.983Z,19.91
2023-03-20T14:55:58.579Z,20.04
2023-03-20T15:01:43.736Z,20.70
2023-03-20T15:04:21.861Z,20.18
2023-03-20T15:07:15.728Z,20.31
2023-03-20T15:09:47.931Z,20.26
2023-03-20T15:12:20.936Z,20.62
2023-03-20T15:14:57.429Z,20.37
2023-03-20T15:17:29.019Z,20.66
2023-03-20T15:20:19.542Z,20.64
2023-03-20T15:23:02.914Z,20.71
2023-03-20T15:25:41.079Z,20.73
2023-03-20T15:28:23.856Z,20.54
2023-03-20T15:30:58.588Z,20.61
2023-03-20T15:33:37.146Z,20.53
2023-03-20T15:36:19.675Z,20.57
2023-03-20T15:38:50.836Z,20.42
2023-03-20T15:41:34.624Z,20.44
2023-03-20T15:44:27.859Z,20.37
2023-03-20T15:47:12.008Z,20.36
2023-03-20T15:52:41.659Z,20.19
2023-03-20T15:55:23.545Z,20.37
2023-03-20T15:58:01.167Z,20.37
2023-03-20T16:00:40.055Z,20.53
2023-03-20T16:03:19.467Z,20.29
2023-03-20T16:06:01.391Z,20.34
2023-03-20T16:08:41.688Z,20.33
2023-03-20T16:11:22.773Z,20.17
2023-03-20T16:14:10.817Z,20.21
2023-03-20T16:16:48.873Z,20.13
2023-03-20T16:19:22.135Z,20.00
2023-03-20T16:21:57.929Z,20.33
2023-03-20T16:24:50.657Z,20.10
2023-03-20T16:27:38.854Z,20.04
2023-03-20T16:30:17.301Z,19.99
2023-03-20T16:32:54.978Z,19.77
2023-03-20T16:35:59.862Z,19.95
2023-03-20T16:38:40.841Z,19.63
2023-03-20T16:41:25.835Z,19.65
2023-03-20T16:43:58.661Z,19.57
2023-03-20T16:46:58.384Z,19.48
2023-03-20T16:49:32.600Z,19.51
2023-03-20T16:52:06.571Z,19.39
2023-03-20T16:54:39.915Z,19.45
2023-03-20T16:57:15.727Z,19.31
2023-03-20T17:02:44.656Z,19.41
2023-03-20T17:05:20.780Z,19.14
2023-03-20T17:07:58.948Z,19.27
2023-03-20T17:10:32.704Z,19.11
2023-03-20T17:13:14.366Z,19.07
2023-03-20T17:15:53.764Z,19.03
2023-03-20T17:18:22.158Z,18.84
2023-03-20T17:20:49.661Z,18.80
2023-03-20T17:26:04.659Z,18.72
2023-03-20T17:28:42.724Z,18.55
2023-03-20T17:31:18.841Z,18.40
2023-03-20T17:33:54.287Z,18.04
2023-03-20T17:36:31.504Z,18.05
2023-03-20T17:39:08.916Z,17.99
2023-03-20T17:41:46.102Z,17.96
2023-03-20T17:44:26.630Z,18.00
2023-03-20T17:47:02.665Z,17.94
2023-03-20T17:49:31.943Z,17.77
2023-03-20T17:52:02.302Z,17.58
2023-03-20T17:54:36.749Z,17.43
2023-03-20T17:57:38.034Z,17.12
2023-03-20T18:00:24.777Z,17.10
2023-03-20T18:02:53.463Z,16.91
2023-03-20T18:05:26.752Z,16.74
2023-03-20T18:10:40.383Z,16.64
2023-03-20T18:13:20.984Z,16.76
2023-03-20T18:15:52.713Z,16.54
2023-03-20T18:18:24.744Z,16.20
2023-03-20T18:23:34.012Z,16.01
2023-03-20T18:28:46.142Z,16.18
2023-03-20T18:31:20.027Z,15.91
2023-03-20T18:33:52.760Z,15.65
2023-03-20T18:36:25.696Z,15.77
2023-03-20T18:38:58.163Z,15.69
2023-03-20T18:44:14.301Z,15.88
2023-03-20T18:46:42.871Z,16.09
2023-03-20T18:49:21.700Z,15.98
2023-03-20T18:51:50.355Z,15.96
2023-03-20T18:54:19.716Z,15.87
2023-03-20T18:57:01.102Z,15.83
2023-03-20T18:59:31.120Z,15.89
2023-03-20T19:04:35.842Z,15.72
2023-03-20T19:07:09.840Z,15.62
2023-03-20T19:09:39.988Z,15.42
2023-03-20T19:12:19.432Z,15.36
2023-03-20T19:15:04.876Z,15.34
2023-03-20T19:17:32.791Z,15.16
2023-03-20T19:20:07.675Z,15.05
2023-03-20T19:22:40.477Z,14.82
2023-03-20T19:25:10.862Z,14.70
2023-03-20T19:27:50.767Z,14.73
2023-03-20T19:30:39.156Z,14.67
2023-03-20T19:33:10.676Z,14.83
2023-03-20T19:35:58.883Z,14.60
2023-03-20T19:38:42.774Z,14.42
2023-03-20T19:43:58.758Z,14.25
2023-03-20T19:46:45.260Z,14.13
2023-03-20T19:52:05.342Z,13.84
2023-03-20T19:54:34.712Z,13.85
2023-03-20T19:57:04.603Z,13.71
2023-03-20T19:59:33.024Z,13.78
2023-03-20T20:02:06.450Z,13.67
2023-03-20T20:04:36.841Z,13.72
2023-03-20T20:07:56.188Z,13.83
2023-03-20T20:10:14.112Z,13.86
2023-03-20T20:12:42.206Z,13.81
2023-03-20T20:15:21.041Z,13.76
2023-03-20T20:20:30.164Z,13.76
2023-03-20T20:25:53.894Z,13.53
2023-03-20T20:28:23.690Z,13.43
2023-03-20T20:30:56.937Z,13.47
2023-03-20T20:33:28.850Z,13.49
2023-03-20T20:36:57.613Z,13.44
2023-03-20T20:39:06.120Z,13.27
2023-03-20T20:41:42.616Z,13.32
2023-03-20T20:44:16.358Z,13.30
2023-03-20T20:46:47.072Z,13.22
2023-03-20T20:49:29.067Z,13.38
2023-03-20T20:52:01.621Z,13.44
2023-03-20T20:54:36.140Z,13.29
2023-03-20T20:57:05.733Z,13.22
2023-03-20T20:59:37.564Z,13.12
2023-03-20T21:02:10.864Z,13.22
2023-03-20T21:04:44.216Z,13.26
2023-03-20T21:09:54.898Z,13.52
2023-03-20T21:12:34.670Z,13.49
2023-03-20T21:15:08.878Z,13.48
2023-03-20T21:17:50.446Z,13.61
2023-03-20T21:20:29.823Z,13.60
2023-03-20T21:22:58.660Z,13.54
2023-03-20T21:25:40.001Z,13.38
2023-03-20T21:28:26.668Z,13.46
2023-03-20T21:31:22.764Z,13.33
2023-03-20T21:33:46.218Z,13.42
2023-03-20T21:36:20.035Z,13.49
2023-03-20T21:41:41.157Z,13.71
2023-03-20T21:44:18.068Z,13.54
2023-03-20T21:58:48.798Z,13.92
2023-03-20T22:01:39.740Z,14.02
2023-03-20T22:05:02.172Z,14.08
2023-03-20T22:10:26.549Z,14.30
2023-03-20T22:16:12.898Z,14.03
2023-03-20T22:27:35.128Z,14.18
2023-03-20T22:30:12.647Z,13.90
2023-03-20T22:33:03.516Z,14.13
2023-03-20T22:38:47.301Z,14.18
2023-03-20T22:46:49.982Z,14.36
2023-03-20T22:49:17.863Z,14.54
2023-03-20T22:52:04.777Z,14.51
2023-03-20T22:54:36.076Z,14.38
2023-03-20T22:57:04.369Z,14.49
2023-03-20T22:59:36.361Z,14.73
2023-03-20T23:02:04.300Z,14.80
2023-03-20T23:04:32.897Z,14.84
2023-03-20T23:07:01.824Z,14.80
2023-03-20T23:09:30.672Z,14.84
2023-03-20T23:11:58.214Z,14.97
2023-03-20T23:14:28.524Z,15.02
2023-03-20T23:17:00.733Z,14.78
2023-03-20T23:19:31.982Z,14.68
2023-03-20T23:22:00.864Z,14.50
2023-03-20T23:24:30.208Z,14.75
2023-03-20T23:26:58.908Z,14.59
2023-03-20T23:29:26.728Z,14.56
2023-03-20T23:31:55.162Z,14.63
2023-03-20T23:34:23.135Z,14.68
2023-03-20T23:36:51.808Z,14.50
2023-03-20T23:39:19.983Z,14.73
2023-03-20T23:42:14.490Z,14.50
2023-03-20T23:44:44.084Z,14.58
2023-03-20T23:47:20.730Z,14.82
2023-03-20T23:49:49.801Z,14.64
2023-03-20T23:52:17.904Z,14.50
2023-03-20T23:54:46.071Z,14.64
2023-03-20T23:57:14.144Z,14.63
2023-03-20T23:59:43.018Z,14.73
